Big Bay, Michigan
Current Conditions -  °F | °C
As of 12:46 PM on Monday 22 Dec 2014 (Local Time) from KSAW Reporting Station
Haze Haze  
Wind Chill: 23°   Ceiling: 200
Heat Index: 32°   Visibility: 1mi
Dew Point: 32°   Wind: 13mph
Humidity: 100%   Direction: 160°SSE
Pressure: 29.86"   Gusts: 17mph
Location:  46.82°N, 87.73°W
Report Text: KSAW 221746Z 16011G15KT 1SM BR OVC002 00/00 A2986
Loading
Personal Weather Stations






























Interactive Weather Map New forecast layout! Learn more

10-Day Weather Forecast

Advertisements
Track Severe Weather on mobile